Flight Track Log - Related Links

Times and Time Zones

All times are in EDT time to prevent confusion due to time zone crossing. See the PDT4155 flight status page for this flight to view local times or setup timezone preferences in your user account.

Time Position Orientation Groundspeed Altitude Reporting Facility
EDT Latitude Longitude Course Direction KTS MPH feet Rate Location/Type
Sat 07:06:00 AM 42.0499 -75.9277 180° South  Level Estimated
Sat 07:07:00 AM 41.9955 -75.9288 181° South  Level FlightAware Approximate
Sat 07:08:00 AM 41.9412 -75.9298 181° South  Level FlightAware Approximate
Sat 07:09:00 AM 41.8868 -75.9308 181° South  Level FlightAware Approximate
Sat 07:10:00 AM 41.8342 -75.9122 154° Southeast  Level Estimated
Sat 07:11:00 AM 41.7816 -75.8937 160° South  Level Estimated
Sat 07:12:00 AM 41.7278 -75.8839 172° South  Level FlightAware Approximate
Sat 07:13:00 AM 41.6752 -75.8651 159° South  Level Estimated
Sat 07:14:00 AM 41.6228 -75.8456 164° South  Level FlightAware Approximate
Sat 07:15:00 AM 41.5703 -75.8270 153° Southeast  Level Estimated
Sat 07:16:00 AM 41.5177 -75.8084 161° South  Level Estimated
Sat 07:17:00 AM 41.4668 -75.7829 159° South  Level FlightAware Approximate
Sat 07:18:00 AM 41.4159 -75.7575 159° South  Level FlightAware Approximate
Sat 07:19:00 AM 41.3649 -75.7321 160° South  Level FlightAware Approximate
Sat 07:20:00 AM 41.3122 -75.7144 162° South  Level Estimated
Sat 07:21:00 AM 41.2610 -75.6901 160° South  Level FlightAware Approximate
Sat 07:22:00 AM 41.2098 -75.6658 160° South  Level FlightAware Approximate
Sat 07:23:00 AM 41.1586 -75.6415 160° South  Level FlightAware Approximate
Sat 07:24:00 AM 41.1074 -75.6173 160° South  Level FlightAware Approximate
Sat 07:25:00 AM 41.0544 -75.6009 159° South  Level Estimated
Sat 07:26:00 AM 41.0015 -75.5845 163° South  Level Estimated
Sat 07:27:00 AM 40.9503 -75.5602 160° South  Level FlightAware Approximate
Sat 07:28:00 AM 40.8991 -75.5360 160° South  Level FlightAware Approximate
Sat 07:28:19 AM 40.7167 -75.5667 180° South 245 282 6,200  Level Philadelphia TRACON
Sat 07:29:00 AM 40.8479 -75.5118 160° South  Level FlightAware Approximate
Sat 07:29:19 AM 40.6500 -75.5667 180° South 242 278 5,200  Level Philadelphia TRACON
Sat 07:30:00 AM 40.7947 -75.4968 190° South  Level Estimated
Sat 07:30:19 AM 40.5833 -75.5667 180° South 237 273 4,900  Level Philadelphia TRACON
Sat 07:31:00 AM 40.7403 -75.4974 180° South  Level FlightAware Approximate
Sat 07:31:19 AM 40.5167 -75.5667 180° South 231 266 5,000  Level Philadelphia TRACON
Sat 07:32:00 AM 40.6859 -75.4980 180° South  Level FlightAware Approximate
Sat 07:32:19 AM 40.4500 -75.5667 180° South 232 267 5,000  Level Philadelphia TRACON
Sat 07:33:00 AM 40.6201 -75.4987 180° South  Level FlightAware Approximate
Sat 07:33:20 AM 40.3833 -75.5500 169° South 230 265 5,000  Level Philadelphia TRACON
Sat 07:34:20 AM 40.3333 -75.5333 166° South 230 265 5,000  Level Philadelphia TRACON
Sat 07:35:20 AM 40.2667 -75.5000 159° South 228 262 5,000 -150 Level Philadelphia TRACON
Sat 07:36:20 AM 40.2000 -75.4667 159° South 229 264 4,700 -500 Descending Philadelphia TRACON
Sat 07:37:20 AM 40.1500 -75.4500 166° South 244 281 4,000 -300 Descending Philadelphia TRACON
Sat 07:38:20 AM 40.0833 -75.4167 159° South 230 265 4,100 50 Climbing Philadelphia TRACON
Sat 07:39:20 AM 40.0167 -75.3833 159° South 228 262 4,100  Level Philadelphia TRACON
Sat 07:40:20 AM 39.9667 -75.3500 153° Southeast 224 258 4,100  Level Philadelphia TRACON
Sat 07:41:20 AM 39.9000 -75.3333 169° South 221 254 4,100 -350 Level Philadelphia TRACON
Sat 07:42:20 AM 39.8500 -75.3000 153° Southeast 200 230 3,400 -1,000 Descending Philadelphia TRACON
Sat 07:43:20 AM 39.8000 -75.2833 166° South 206 237 2,100 -800 Descending Philadelphia TRACON
Sat 07:44:20 AM 39.7667 -75.2333 131° Southeast 177 204 1,800 -200 Descending Philadelphia TRACON
Sat 07:45:20 AM 39.8000 -75.1833 49° Northeast 169 194 1,700 -347 Descending Philadelphia TRACON
Sat 07:46:21 AM 39.8333 -75.2167 322° Northwest 120 138 1,100 -595 Descending Philadelphia TRACON
Sat 07:47:21 AM 39.8500 -75.2167 360° North 103 119 500 -600 Descending Philadelphia TRACON

Login

Don't have an account? Register now (free) for customized features, flight alerts, and more!